Time;durP1;ratioP1;P1;durP2;ratioP2;P2;SDS_P1;SDS_P2;PMS_P1;PMS_P2;Temp;Humidity;BMP_temperature;BMP_pressure;BME280_temperature;BME280_humidity;BME280_pressure;Samples;Min_cycle;Max_cycle;Signal;HPM_P1;HPM_P2
2022/04/08 00:01:27;;;;;;;;;;;6.10;99.90;;;;;;5124006;27;20408;-61
2022/04/08 00:03:53;;;;;;;;;;;6.00;99.90;;;;;;5115198;28;19923;-62
2022/04/08 00:06:19;;;;;;;;;;;6.00;99.90;;;;;;5125246;27;19964;-62
2022/04/08 00:08:45;;;;;;;;;;;5.80;99.90;;;;;;5132780;27;20036;-63
2022/04/08 00:11:11;;;;;;;;;;;5.80;99.90;;;;;;5141523;27;19916;-65
2022/04/08 00:13:37;;;;;;;;;;;5.70;99.90;;;;;;5119582;27;19911;-62
2022/04/08 00:16:03;;;;;;;;;;;5.80;99.90;;;;;;5128040;27;19936;-62
2022/04/08 00:18:29;;;;;;;;;;;5.70;99.90;;;;;;5141847;27;19979;-63
2022/04/08 00:20:56;;;;;;;;;;;5.70;99.90;;;;;;5144854;27;19943;-63
2022/04/08 00:23:21;;;;;;;;;;;5.70;99.90;;;;;;5142484;27;19978;-63
2022/04/08 00:25:47;;;;;;;;;;;5.70;99.90;;;;;;5140228;27;19900;-63
2022/04/08 00:28:13;;;;;;;;;;;5.70;99.90;;;;;;5140853;27;19912;-63
2022/04/08 00:30:38;;;;;;;;;;;5.70;99.90;;;;;;5132579;27;19912;-62
2022/04/08 00:33:04;;;;;;;;;;;5.70;99.90;;;;;;5131783;27;19954;-63
2022/04/08 00:35:30;;;;;;;;;;;5.70;99.90;;;;;;5124838;27;19912;-66
2022/04/08 00:37:56;;;;;;;;;;;5.60;99.90;;;;;;5148424;27;19919;-62
2022/04/08 00:40:22;;;;;;;;;;;5.60;99.90;;;;;;5130657;27;19915;-63
2022/04/08 00:42:47;;;;;;;;;;;5.60;99.90;;;;;;5151856;27;19907;-63
2022/04/08 00:45:13;;;;;;;;;;;5.60;99.90;;;;;;5131243;27;19922;-63
2022/04/08 00:47:41;;;;;;;;;;;5.50;99.90;;;;;;5138231;27;19907;-62
2022/04/08 00:50:13;;;;;;;;;;;5.50;99.90;;;;;;5136152;27;19941;-63
2022/04/08 00:52:44;;;;;;;;;;;5.50;99.90;;;;;;5129503;27;19911;-62
2022/04/08 00:55:13;;;;;;;;;;;5.40;99.90;;;;;;5113432;27;19911;-61
2022/04/08 00:57:41;;;;;;;;;;;5.40;99.90;;;;;;5123511;27;20344;-62
2022/04/08 01:00:08;;;;;;;;;;;5.20;99.90;;;;;;5125686;27;19912;-63
2022/04/08 01:02:34;;;;;;;;;;;5.40;99.90;;;;;;5130888;27;19922;-63
2022/04/08 01:05:00;;;;;;;;;;;5.40;99.90;;;;;;5135378;27;19946;-62
2022/04/08 01:07:26;;;;;;;;;;;5.40;99.90;;;;;;5132119;27;19912;-61
2022/04/08 01:09:52;;;;;;;;;;;5.40;99.90;;;;;;5106920;28;20377;-61
2022/04/08 01:12:18;;;;;;;;;;;5.40;99.90;;;;;;5111039;27;20178;-62
2022/04/08 01:14:44;;;;;;;;;;;5.10;99.90;;;;;;5132483;27;20388;-61
2022/04/08 01:17:10;;;;;;;;;;;5.00;99.90;;;;;;5112788;28;19912;-63
2022/04/08 01:19:35;;;;;;;;;;;4.90;99.90;;;;;;5121702;28;19934;-64
2022/04/08 01:22:02;;;;;;;;;;;4.80;99.90;;;;;;5125357;28;19975;-62
2022/04/08 01:24:29;;;;;;;;;;;4.80;99.90;;;;;;5126909;27;19922;-63
2022/04/08 01:26:54;;;;;;;;;;;4.70;99.90;;;;;;5125913;28;20455;-61
2022/04/08 01:29:20;;;;;;;;;;;4.70;99.90;;;;;;5126547;28;19943;-63
2022/04/08 01:31:46;;;;;;;;;;;4.80;99.90;;;;;;5126429;27;19912;-64
2022/04/08 01:34:12;;;;;;;;;;;4.70;99.90;;;;;;5126797;28;19919;-62
2022/04/08 01:36:38;;;;;;;;;;;4.80;99.90;;;;;;5131818;27;20423;-63
2022/04/08 01:39:04;;;;;;;;;;;4.90;99.90;;;;;;5129927;27;19916;-62
2022/04/08 01:41:31;;;;;;;;;;;5.00;99.90;;;;;;5128689;27;19915;-62
2022/04/08 01:43:57;;;;;;;;;;;5.10;99.90;;;;;;5112273;27;20371;-63
2022/04/08 01:46:22;;;;;;;;;;;5.10;99.90;;;;;;5130270;27;19911;-62
2022/04/08 01:48:51;;;;;;;;;;;5.20;99.90;;;;;;5139577;27;19916;-63
2022/04/08 01:51:16;;;;;;;;;;;5.10;99.90;;;;;;5135530;27;20373;-64
2022/04/08 01:53:42;;;;;;;;;;;4.90;99.90;;;;;;5116839;27;19911;-63
2022/04/08 01:56:07;;;;;;;;;;;4.90;99.90;;;;;;5143426;27;19958;-62
2022/04/08 01:58:33;;;;;;;;;;;4.90;99.90;;;;;;5135101;27;20010;-63
2022/04/08 02:00:59;;;;;;;;;;;4.70;99.90;;;;;;5143152;27;19941;-63
2022/04/08 02:03:25;;;;;;;;;;;4.80;99.90;;;;;;5130428;27;19912;-60
2022/04/08 02:05:51;;;;;;;;;;;4.80;99.90;;;;;;5111697;27;20376;-61
2022/04/08 02:08:16;;;;;;;;;;;4.80;99.90;;;;;;5128920;27;19911;-62
2022/04/08 02:10:42;;;;;;;;;;;4.60;99.90;;;;;;5133027;27;19937;-62
2022/04/08 02:13:08;;;;;;;;;;;4.60;99.90;;;;;;5114962;27;20318;-63
2022/04/08 02:15:34;;;;;;;;;;;4.60;99.90;;;;;;5129327;27;19918;-62
2022/04/08 02:18:03;;;;;;;;;;;4.60;99.90;;;;;;5134652;27;19954;-63
2022/04/08 02:20:32;;;;;;;;;;;4.60;99.90;;;;;;5139721;27;19967;-63
2022/04/08 02:22:58;;;;;;;;;;;4.50;99.90;;;;;;5117047;27;19929;-62
2022/04/08 02:25:25;;;;;;;;;;;4.40;99.90;;;;;;5111851;27;19919;-65
2022/04/08 02:27:51;;;;;;;;;;;4.30;99.90;;;;;;5131803;27;19920;-63
2022/04/08 02:30:17;;;;;;;;;;;4.40;99.90;;;;;;5127053;27;19918;-62
2022/04/08 02:32:42;;;;;;;;;;;4.30;99.90;;;;;;5126801;27;19919;-65
2022/04/08 02:35:08;;;;;;;;;;;4.40;99.90;;;;;;5131988;27;19918;-65
2022/04/08 02:37:33;;;;;;;;;;;4.40;99.90;;;;;;5110736;27;19936;-63
2022/04/08 02:39:59;;;;;;;;;;;4.50;99.90;;;;;;5133042;27;19912;-63
2022/04/08 02:42:25;;;;;;;;;;;4.40;99.90;;;;;;5125625;27;19926;-63
2022/04/08 02:44:50;;;;;;;;;;;4.50;99.90;;;;;;5124834;27;20014;-65
2022/04/08 02:47:16;;;;;;;;;;;4.60;99.90;;;;;;5118709;27;19912;-64
2022/04/08 02:49:41;;;;;;;;;;;4.70;99.90;;;;;;5118118;27;19956;-64
2022/04/08 02:52:07;;;;;;;;;;;4.90;99.90;;;;;;5133316;27;19927;-63
2022/04/08 02:54:32;;;;;;;;;;;4.90;99.90;;;;;;5126625;27;19911;-63
2022/04/08 02:56:58;;;;;;;;;;;5.10;99.90;;;;;;5125942;27;19922;-62
2022/04/08 02:59:24;;;;;;;;;;;5.10;99.90;;;;;;5125423;27;20323;-64
2022/04/08 03:01:49;;;;;;;;;;;5.30;99.90;;;;;;5124300;27;19922;-64
2022/04/08 03:04:15;;;;;;;;;;;5.30;99.90;;;;;;5133725;27;20332;-64
2022/04/08 03:06:40;;;;;;;;;;;5.10;99.90;;;;;;5125653;27;19998;-63
2022/04/08 03:09:06;;;;;;;;;;;4.90;99.90;;;;;;5124584;27;19912;-62
2022/04/08 03:11:32;;;;;;;;;;;4.80;99.90;;;;;;5129984;27;19912;-62
2022/04/08 03:14:02;;;;;;;;;;;4.60;99.90;;;;;;5134184;27;20341;-63
2022/04/08 03:16:28;;;;;;;;;;;4.50;99.90;;;;;;5131445;27;19911;-63
2022/04/08 03:18:53;;;;;;;;;;;4.40;99.90;;;;;;5130177;27;20011;-63
2022/04/08 03:21:19;;;;;;;;;;;4.30;99.90;;;;;;5126635;27;20098;-63
2022/04/08 03:23:45;;;;;;;;;;;4.30;99.90;;;;;;5132250;27;19911;-63
2022/04/08 03:26:10;;;;;;;;;;;4.40;99.90;;;;;;5111281;27;20063;-64
2022/04/08 03:28:36;;;;;;;;;;;4.50;99.90;;;;;;5134367;27;19916;-63
2022/04/08 03:31:01;;;;;;;;;;;4.60;99.90;;;;;;5113447;27;19995;-62
2022/04/08 03:33:27;;;;;;;;;;;4.60;99.90;;;;;;5109005;27;19908;-63
2022/04/08 03:35:53;;;;;;;;;;;4.60;99.90;;;;;;5118949;27;19964;-63
2022/04/08 03:38:18;;;;;;;;;;;4.50;99.90;;;;;;5123410;27;19994;-63
2022/04/08 03:40:44;;;;;;;;;;;4.40;99.90;;;;;;5131762;27;19916;-62
2022/04/08 03:43:10;;;;;;;;;;;4.30;99.90;;;;;;5120735;27;19911;-62
2022/04/08 03:45:35;;;;;;;;;;;4.20;99.90;;;;;;5114681;27;19912;-63
2022/04/08 03:48:01;;;;;;;;;;;4.00;99.90;;;;;;5132717;27;19912;-62
2022/04/08 03:50:27;;;;;;;;;;;4.00;99.90;;;;;;5117073;27;19912;-62
2022/04/08 03:52:52;;;;;;;;;;;4.00;99.90;;;;;;5131926;27;20353;-63
2022/04/08 03:55:18;;;;;;;;;;;4.00;99.90;;;;;;5132560;27;19943;-63
2022/04/08 03:57:44;;;;;;;;;;;4.00;99.90;;;;;;5120901;27;19912;-63
2022/04/08 04:00:10;;;;;;;;;;;3.90;99.90;;;;;;5108945;27;19920;-62
2022/04/08 04:02:35;;;;;;;;;;;3.90;99.90;;;;;;5133371;27;19924;-64
2022/04/08 04:05:02;;;;;;;;;;;4.00;99.90;;;;;;5136322;27;20011;-64
2022/04/08 04:07:28;;;;;;;;;;;4.00;99.90;;;;;;5126383;27;19912;-63
2022/04/08 04:09:54;;;;;;;;;;;3.90;99.90;;;;;;5121562;27;20040;-63
2022/04/08 04:12:19;;;;;;;;;;;3.90;99.90;;;;;;5131398;27;19976;-64
2022/04/08 04:14:45;;;;;;;;;;;3.90;99.90;;;;;;5129292;27;20014;-63
2022/04/08 04:17:11;;;;;;;;;;;3.90;99.90;;;;;;5130261;27;19912;-64
2022/04/08 04:19:36;;;;;;;;;;;3.90;99.90;;;;;;5105428;28;19926;-62
2022/04/08 04:22:02;;;;;;;;;;;3.90;99.90;;;;;;5126251;27;19982;-64
2022/04/08 04:24:28;;;;;;;;;;;3.90;99.90;;;;;;5126801;27;20380;-64
2022/04/08 04:26:53;;;;;;;;;;;4.00;99.90;;;;;;5129179;27;19926;-63
2022/04/08 04:29:19;;;;;;;;;;;3.90;99.90;;;;;;5120577;27;19911;-63
2022/04/08 04:31:44;;;;;;;;;;;3.90;99.90;;;;;;5127030;27;19918;-63
2022/04/08 04:34:10;;;;;;;;;;;4.00;99.90;;;;;;5126472;27;20045;-63
2022/04/08 04:36:36;;;;;;;;;;;3.90;99.90;;;;;;5131468;27;19926;-67
2022/04/08 04:39:01;;;;;;;;;;;4.00;99.90;;;;;;5133210;27;19922;-63
2022/04/08 04:41:27;;;;;;;;;;;3.90;99.90;;;;;;5133219;27;19916;-63
2022/04/08 04:43:52;;;;;;;;;;;3.90;99.90;;;;;;5128056;27;20119;-64
2022/04/08 04:46:18;;;;;;;;;;;3.90;99.90;;;;;;5136762;27;19912;-63
2022/04/08 04:48:44;;;;;;;;;;;3.90;99.90;;;;;;5133586;27;19911;-62
2022/04/08 04:51:11;;;;;;;;;;;3.90;99.90;;;;;;5127362;27;19973;-64
2022/04/08 04:53:37;;;;;;;;;;;4.10;99.90;;;;;;5125831;27;19918;-64
2022/04/08 04:56:03;;;;;;;;;;;4.10;99.90;;;;;;5128502;27;19915;-63
2022/04/08 04:58:28;;;;;;;;;;;4.30;99.90;;;;;;5129222;27;20064;-65
2022/04/08 05:00:54;;;;;;;;;;;4.40;99.90;;;;;;5125877;27;19927;-62
2022/04/08 05:03:20;;;;;;;;;;;4.50;99.90;;;;;;5122537;27;20270;-63
2022/04/08 05:05:45;;;;;;;;;;;4.50;99.90;;;;;;5122607;27;19937;-62
2022/04/08 05:08:11;;;;;;;;;;;4.60;99.90;;;;;;5127309;27;19912;-63
2022/04/08 05:10:36;;;;;;;;;;;4.60;99.90;;;;;;5104085;28;19911;-63
2022/04/08 05:13:02;;;;;;;;;;;4.50;99.90;;;;;;5115273;28;19911;-62
2022/04/08 05:15:28;;;;;;;;;;;4.70;99.90;;;;;;5124806;28;19912;-62
2022/04/08 05:17:54;;;;;;;;;;;4.60;99.90;;;;;;5135090;28;19922;-63
2022/04/08 05:20:20;;;;;;;;;;;4.50;99.90;;;;;;5118907;28;19922;-63
2022/04/08 05:22:45;;;;;;;;;;;4.40;99.90;;;;;;5120986;28;19919;-63
2022/04/08 05:25:11;;;;;;;;;;;4.40;99.90;;;;;;5131040;27;19911;-63
2022/04/08 05:27:37;;;;;;;;;;;4.40;99.90;;;;;;5112588;28;19915;-64
2022/04/08 05:30:10;;;;;;;;;;;4.30;99.90;;;;;;5130010;27;19918;-65
2022/04/08 05:32:36;;;;;;;;;;;4.30;99.90;;;;;;5137668;27;19944;-63
2022/04/08 05:35:01;;;;;;;;;;;4.20;99.90;;;;;;5130367;27;19987;-63
2022/04/08 05:37:28;;;;;;;;;;;4.30;99.90;;;;;;5138064;27;19947;-63
2022/04/08 05:39:54;;;;;;;;;;;4.30;99.90;;;;;;5129280;27;20387;-63
2022/04/08 05:42:20;;;;;;;;;;;4.10;99.90;;;;;;5131862;27;19919;-62
2022/04/08 05:44:46;;;;;;;;;;;4.20;99.90;;;;;;5121888;27;19916;-63
2022/04/08 05:47:11;;;;;;;;;;;4.10;99.90;;;;;;5132096;27;19912;-62
2022/04/08 05:49:37;;;;;;;;;;;4.10;99.90;;;;;;5126504;27;19934;-62
2022/04/08 05:52:04;;;;;;;;;;;4.10;99.90;;;;;;5124974;27;19919;-64
2022/04/08 05:54:30;;;;;;;;;;;4.10;99.90;;;;;;5104521;28;19955;-64
2022/04/08 05:56:57;;;;;;;;;;;4.10;99.90;;;;;;5128856;27;19915;-63
2022/04/08 05:59:23;;;;;;;;;;;4.00;99.90;;;;;;5107726;27;20014;-62
2022/04/08 06:01:48;;;;;;;;;;;4.00;99.90;;;;;;5125169;27;19962;-64
2022/04/08 06:04:14;;;;;;;;;;;4.10;99.90;;;;;;5116768;27;19911;-63
2022/04/08 06:06:43;;;;;;;;;;;4.10;99.90;;;;;;5127144;27;20421;-64
2022/04/08 06:09:08;;;;;;;;;;;4.20;99.90;;;;;;5128752;27;20399;-64
2022/04/08 06:11:34;;;;;;;;;;;4.20;99.90;;;;;;5127400;27;20003;-64
2022/04/08 06:14:00;;;;;;;;;;;4.20;99.90;;;;;;5136822;27;19922;-64
2022/04/08 06:16:25;;;;;;;;;;;4.30;99.90;;;;;;5136104;27;19911;-63
2022/04/08 06:18:51;;;;;;;;;;;4.50;99.90;;;;;;5122682;27;19916;-64
2022/04/08 06:21:16;;;;;;;;;;;4.40;99.90;;;;;;5122158;27;19916;-64
2022/04/08 06:23:42;;;;;;;;;;;4.50;99.90;;;;;;5118588;27;20277;-64
2022/04/08 06:26:09;;;;;;;;;;;4.60;99.90;;;;;;5135067;27;19911;-62
2022/04/08 06:28:34;;;;;;;;;;;4.60;99.90;;;;;;5118344;27;19911;-65
2022/04/08 06:31:00;;;;;;;;;;;4.80;99.90;;;;;;5134461;27;19919;-63
2022/04/08 06:33:25;;;;;;;;;;;5.00;99.90;;;;;;5136336;27;19918;-63
2022/04/08 06:35:51;;;;;;;;;;;5.10;99.90;;;;;;5126674;27;19970;-64
2022/04/08 06:38:17;;;;;;;;;;;5.10;99.90;;;;;;5115150;27;19918;-63
2022/04/08 06:40:42;;;;;;;;;;;4.90;99.90;;;;;;5119173;27;19959;-63
2022/04/08 06:43:08;;;;;;;;;;;4.90;99.90;;;;;;5138902;27;20425;-64
2022/04/08 06:45:34;;;;;;;;;;;4.90;99.90;;;;;;5133534;27;20257;-64
2022/04/08 06:48:00;;;;;;;;;;;4.80;99.90;;;;;;5128009;27;19912;-64
2022/04/08 06:50:34;;;;;;;;;;;4.90;99.90;;;;;;5134903;27;19912;-64
2022/04/08 06:53:00;;;;;;;;;;;4.80;99.90;;;;;;5134534;27;19963;-64
2022/04/08 06:55:30;;;;;;;;;;;4.80;99.90;;;;;;5111826;27;19919;-64
2022/04/08 06:57:59;;;;;;;;;;;4.90;99.90;;;;;;5130627;27;19950;-63
2022/04/08 07:00:25;;;;;;;;;;;4.80;99.90;;;;;;5125264;27;19974;-64
2022/04/08 07:02:51;;;;;;;;;;;4.80;99.90;;;;;;5139478;27;19915;-64
2022/04/08 07:05:16;;;;;;;;;;;4.80;99.90;;;;;;5140533;27;19912;-64
2022/04/08 07:07:45;;;;;;;;;;;4.70;99.90;;;;;;5125916;27;19918;-63
2022/04/08 07:10:11;;;;;;;;;;;4.70;99.90;;;;;;5142998;27;19911;-62
2022/04/08 07:12:37;;;;;;;;;;;4.70;99.90;;;;;;5127429;27;19899;-63
2022/04/08 07:15:03;;;;;;;;;;;4.70;99.90;;;;;;5120037;27;19915;-64
2022/04/08 07:17:29;;;;;;;;;;;4.80;99.90;;;;;;5136364;27;19918;-62
2022/04/08 07:19:55;;;;;;;;;;;4.90;99.90;;;;;;5134536;27;20006;-64
2022/04/08 07:22:21;;;;;;;;;;;4.90;99.90;;;;;;5135609;27;19951;-63
2022/04/08 07:24:47;;;;;;;;;;;5.00;99.90;;;;;;5116317;27;19918;-64
2022/04/08 07:27:12;;;;;;;;;;;5.00;99.90;;;;;;5135204;27;19915;-66
2022/04/08 07:29:38;;;;;;;;;;;5.10;99.90;;;;;;5139530;27;19937;-65
2022/04/08 07:32:04;;;;;;;;;;;5.10;99.90;;;;;;5135892;27;19912;-66
2022/04/08 07:34:29;;;;;;;;;;;5.20;99.90;;;;;;5153002;27;19916;-63
2022/04/08 07:36:55;;;;;;;;;;;5.20;99.90;;;;;;5147725;27;19926;-65
2022/04/08 07:39:21;;;;;;;;;;;5.30;99.90;;;;;;5140940;27;19918;-64
2022/04/08 07:41:46;;;;;;;;;;;5.30;99.90;;;;;;5156740;27;20050;-67
2022/04/08 07:44:12;;;;;;;;;;;5.30;99.90;;;;;;5158593;27;19899;-65
2022/04/08 07:46:38;;;;;;;;;;;5.40;99.90;;;;;;5137157;27;19904;-63
2022/04/08 07:49:03;;;;;;;;;;;5.60;99.90;;;;;;5154213;27;19903;-65
2022/04/08 07:51:29;;;;;;;;;;;5.70;99.90;;;;;;5156715;27;19978;-65
2022/04/08 07:53:55;;;;;;;;;;;5.90;99.90;;;;;;5155819;27;19900;-64
2022/04/08 07:56:20;;;;;;;;;;;5.90;99.90;;;;;;5150819;27;19925;-64
2022/04/08 07:58:47;;;;;;;;;;;6.00;99.90;;;;;;5127848;27;19935;-63
2022/04/08 08:01:13;;;;;;;;;;;6.10;99.90;;;;;;5138746;27;19914;-63
2022/04/08 08:03:38;;;;;;;;;;;6.20;99.90;;;;;;5149272;27;19920;-64
2022/04/08 08:06:04;;;;;;;;;;;6.40;99.90;;;;;;5132096;27;19962;-67
2022/04/08 08:08:30;;;;;;;;;;;6.50;99.90;;;;;;5135321;27;19933;-64
2022/04/08 08:10:55;;;;;;;;;;;6.60;99.90;;;;;;5157589;27;19915;-64
2022/04/08 08:13:21;;;;;;;;;;;6.70;99.90;;;;;;5154622;27;19911;-63
2022/04/08 08:15:47;;;;;;;;;;;6.80;99.90;;;;;;5157823;27;19907;-63
2022/04/08 08:18:13;;;;;;;;;;;6.80;99.90;;;;;;5157992;27;19916;-64
2022/04/08 08:20:38;;;;;;;;;;;6.80;99.90;;;;;;5156222;27;19926;-63
2022/04/08 08:23:06;;;;;;;;;;;7.10;99.90;;;;;;5144839;27;19903;-64
2022/04/08 08:25:32;;;;;;;;;;;7.30;99.90;;;;;;5148511;27;19903;-64
2022/04/08 08:28:02;;;;;;;;;;;7.50;99.90;;;;;;5127139;28;19939;-63
2022/04/08 08:30:31;;;;;;;;;;;7.50;99.90;;;;;;5149191;27;19908;-62
2022/04/08 08:32:56;;;;;;;;;;;7.50;99.90;;;;;;5153737;27;19983;-64
2022/04/08 08:35:25;;;;;;;;;;;7.60;99.90;;;;;;5145448;27;19899;-63
2022/04/08 08:37:51;;;;;;;;;;;7.60;99.90;;;;;;5131669;27;19927;-64
2022/04/08 08:40:17;;;;;;;;;;;7.90;99.90;;;;;;5150808;27;19926;-65
2022/04/08 08:42:43;;;;;;;;;;;7.90;99.90;;;;;;5146235;27;19922;-64
2022/04/08 08:45:10;;;;;;;;;;;8.00;99.90;;;;;;5151000;27;19907;-64
2022/04/08 08:47:36;;;;;;;;;;;8.00;99.90;;;;;;5145549;27;19903;-64
2022/04/08 08:50:02;;;;;;;;;;;8.00;99.90;;;;;;5146721;27;19911;-63
2022/04/08 08:52:28;;;;;;;;;;;8.20;99.90;;;;;;5149474;27;20098;-63
2022/04/08 08:54:54;;;;;;;;;;;8.30;99.90;;;;;;5146070;27;19967;-63
2022/04/08 08:57:21;;;;;;;;;;;8.60;99.90;;;;;;5150339;27;20020;-64
2022/04/08 08:59:47;;;;;;;;;;;8.70;99.90;;;;;;5154676;27;19935;-64
2022/04/08 09:02:21;;;;;;;;;;;8.90;99.90;;;;;;5154633;27;19911;-67
2022/04/08 09:04:49;;;;;;;;;;;9.10;99.90;;;;;;5147889;27;19904;-63
2022/04/08 09:07:27;;;;;;;;;;;9.10;99.90;;;;;;5126986;27;19899;-61
2022/04/08 09:09:54;;;;;;;;;;;9.00;99.90;;;;;;5152516;27;19916;-64
2022/04/08 09:12:21;;;;;;;;;;;8.90;99.90;;;;;;5124287;28;19972;-65
2022/04/08 09:14:49;;;;;;;;;;;8.90;99.90;;;;;;5147837;27;19942;-62
2022/04/08 09:17:18;;;;;;;;;;;8.90;99.90;;;;;;5138956;28;19912;-63
2022/04/08 09:19:50;;;;;;;;;;;9.00;99.90;;;;;;5139841;27;20324;-62
2022/04/08 09:22:17;;;;;;;;;;;9.00;99.90;;;;;;5139601;28;19923;-63
2022/04/08 09:24:42;;;;;;;;;;;9.20;99.90;;;;;;5139856;27;19907;-63
2022/04/08 09:27:09;;;;;;;;;;;9.30;99.90;;;;;;5133404;28;20022;-62
2022/04/08 09:29:35;;;;;;;;;;;9.10;99.90;;;;;;5143390;27;19907;-62
2022/04/08 09:32:07;;;;;;;;;;;8.90;99.90;;;;;;5139725;28;19923;-63
2022/04/08 09:34:33;;;;;;;;;;;9.00;99.90;;;;;;5139090;27;19907;-63
2022/04/08 09:37:04;;;;;;;;;;;9.00;99.90;;;;;;5130558;27;19920;-63
2022/04/08 09:39:30;;;;;;;;;;;8.90;99.90;;;;;;5133597;27;19917;-63
2022/04/08 09:41:56;;;;;;;;;;;8.80;99.90;;;;;;5120567;28;19980;-62
2022/04/08 09:44:26;;;;;;;;;;;8.80;99.90;;;;;;5133563;27;20567;-62
2022/04/08 09:46:52;;;;;;;;;;;8.80;99.90;;;;;;5135648;27;19899;-63
2022/04/08 09:49:17;;;;;;;;;;;8.90;99.90;;;;;;5141922;27;19954;-63
2022/04/08 09:51:43;;;;;;;;;;;8.90;99.90;;;;;;5122307;28;19912;-62
2022/04/08 09:54:09;;;;;;;;;;;9.00;99.90;;;;;;5136386;28;19912;-62
2022/04/08 09:56:36;;;;;;;;;;;8.90;99.90;;;;;;5121454;28;19911;-62
2022/04/08 09:59:06;;;;;;;;;;;8.90;99.90;;;;;;5147927;28;19915;-63
2022/04/08 10:01:33;;;;;;;;;;;9.10;99.90;;;;;;5144353;28;19926;-64
2022/04/08 10:03:59;;;;;;;;;;;9.50;99.90;;;;;;5142643;28;19923;-63
2022/04/08 10:06:25;;;;;;;;;;;9.70;99.90;;;;;;5119214;28;19967;-62
2022/04/08 10:08:50;;;;;;;;;;;9.80;99.90;;;;;;5106787;27;19912;-62
2022/04/08 10:11:24;;;;;;;;;;;10.00;99.90;;;;;;5125875;27;19923;-63
2022/04/08 10:14:11;;;;;;;;;;;9.90;99.90;;;;;;5138541;27;19911;-63
2022/04/08 10:16:39;;;;;;;;;;;9.90;99.90;;;;;;5133418;27;19912;-63
2022/04/08 10:19:07;;;;;;;;;;;9.70;99.90;;;;;;5142195;27;19959;-62
2022/04/08 10:21:37;;;;;;;;;;;9.60;99.90;;;;;;5133443;27;19912;-62
2022/04/08 10:24:07;;;;;;;;;;;9.90;99.90;;;;;;5114494;27;19911;-63
2022/04/08 10:26:33;;;;;;;;;;;9.90;99.90;;;;;;5125980;27;19919;-63
2022/04/08 10:29:08;;;;;;;;;;;10.10;99.90;;;;;;5132042;27;20387;-63
2022/04/08 10:31:34;;;;;;;;;;;10.50;99.90;;;;;;5130204;27;19934;-62
2022/04/08 10:34:00;;;;;;;;;;;11.00;99.90;;;;;;5133422;27;19912;-63
2022/04/08 10:36:32;;;;;;;;;;;11.00;99.90;;;;;;5138164;27;19923;-63
2022/04/08 10:39:12;;;;;;;;;;;10.80;99.90;;;;;;5135957;27;19923;-62
2022/04/08 10:41:48;;;;;;;;;;;11.10;99.90;;;;;;5127376;27;19915;-63
2022/04/08 10:44:14;;;;;;;;;;;11.10;99.90;;;;;;5130595;27;19919;-63
2022/04/08 10:46:50;;;;;;;;;;;11.50;99.90;;;;;;5130660;27;19916;-63
2022/04/08 10:49:16;;;;;;;;;;;11.60;99.90;;;;;;5129465;27;19919;-63
2022/04/08 10:51:45;;;;;;;;;;;11.60;99.90;;;;;;5137174;27;20296;-64
2022/04/08 10:54:11;;;;;;;;;;;11.70;99.90;;;;;;5136547;27;19923;-64
2022/04/08 10:56:37;;;;;;;;;;;11.60;99.90;;;;;;5139524;27;19912;-63
2022/04/08 10:59:03;;;;;;;;;;;11.70;99.90;;;;;;5130566;27;19916;-64
2022/04/08 11:01:34;;;;;;;;;;;11.70;99.90;;;;;;5129226;27;19927;-64
2022/04/08 11:04:03;;;;;;;;;;;11.50;99.90;;;;;;5122338;27;20355;-62
2022/04/08 11:06:29;;;;;;;;;;;11.60;99.90;;;;;;5133148;27;20273;-64
2022/04/08 11:08:56;;;;;;;;;;;11.70;99.90;;;;;;5131902;27;20049;-64
2022/04/08 11:11:32;;;;;;;;;;;11.50;99.90;;;;;;5125251;27;19915;-64
2022/04/08 11:13:58;;;;;;;;;;;11.60;99.90;;;;;;5137165;27;20365;-63
2022/04/08 11:16:28;;;;;;;;;;;11.80;99.90;;;;;;5128218;27;20052;-62
2022/04/08 11:18:54;;;;;;;;;;;11.70;99.90;;;;;;5108880;27;19923;-64
2022/04/08 11:21:21;;;;;;;;;;;11.90;99.90;;;;;;5124677;27;19923;-65
2022/04/08 11:24:00;;;;;;;;;;;12.00;99.90;;;;;;5128367;27;20332;-64
2022/04/08 11:26:28;;;;;;;;;;;12.40;99.90;;;;;;5133766;27;19911;-63
2022/04/08 11:28:54;;;;;;;;;;;12.80;99.90;;;;;;5128975;27;20042;-63
2022/04/08 11:31:19;;;;;;;;;;;13.00;99.90;;;;;;5136375;27;19915;-64
2022/04/08 11:33:45;;;;;;;;;;;12.50;99.90;;;;;;5141916;27;19922;-63
2022/04/08 11:36:11;;;;;;;;;;;12.40;99.90;;;;;;5140144;27;20011;-64
2022/04/08 11:38:36;;;;;;;;;;;12.40;99.90;;;;;;5148149;27;19971;-65
2022/04/08 11:41:04;;;;;;;;;;;12.50;99.90;;;;;;5135940;27;20679;-64
2022/04/08 11:43:30;;;;;;;;;;;12.10;99.90;;;;;;5140740;27;19925;-63
2022/04/08 11:45:55;;;;;;;;;;;11.90;99.90;;;;;;5140723;27;19911;-63
2022/04/08 11:48:23;;;;;;;;;;;11.70;99.90;;;;;;5141760;27;19911;-65
2022/04/08 11:50:49;;;;;;;;;;;11.70;99.90;;;;;;5134453;27;19966;-64
2022/04/08 11:53:15;;;;;;;;;;;11.80;99.90;;;;;;5138730;27;19907;-67
2022/04/08 11:55:51;;;;;;;;;;;11.60;99.90;;;;;;5131787;27;19987;-64
2022/04/08 11:58:19;;;;;;;;;;;11.50;99.90;;;;;;5146364;27;19947;-63
2022/04/08 12:00:48;;;;;;;;;;;11.50;99.90;;;;;;5138612;27;19927;-64
2022/04/08 12:03:18;;;;;;;;;;;11.00;99.90;;;;;;5143755;27;19918;-63
2022/04/08 12:05:47;;;;;;;;;;;10.50;99.90;;;;;;5144246;27;19939;-64
2022/04/08 12:08:13;;;;;;;;;;;10.30;99.90;;;;;;5151391;27;20034;-64
2022/04/08 12:10:39;;;;;;;;;;;10.30;99.90;;;;;;5149333;27;19915;-64
2022/04/08 12:13:19;;;;;;;;;;;10.30;99.90;;;;;;5127151;27;19912;-63
2022/04/08 12:15:46;;;;;;;;;;;10.50;99.90;;;;;;5146759;27;19923;-64
2022/04/08 12:18:11;;;;;;;;;;;10.60;99.90;;;;;;5111357;27;19912;-67
2022/04/08 12:20:38;;;;;;;;;;;10.90;99.90;;;;;;5133966;27;20382;-63
2022/04/08 12:23:05;;;;;;;;;;;11.10;99.90;;;;;;5139266;27;19994;-64
2022/04/08 12:25:31;;;;;;;;;;;11.20;99.90;;;;;;5135733;27;19918;-64
2022/04/08 12:27:58;;;;;;;;;;;11.30;99.90;;;;;;5132643;27;19919;-63
2022/04/08 12:30:28;;;;;;;;;;;10.80;99.90;;;;;;5126213;27;19904;-63
2022/04/08 12:32:53;;;;;;;;;;;10.40;99.90;;;;;;5124656;28;19962;-63
2022/04/08 12:35:20;;;;;;;;;;;9.90;99.90;;;;;;5145862;27;19921;-65
2022/04/08 12:37:46;;;;;;;;;;;9.80;99.90;;;;;;5147720;27;19941;-65
2022/04/08 12:40:11;;;;;;;;;;;9.70;99.90;;;;;;5138556;27;19966;-63
2022/04/08 12:42:38;;;;;;;;;;;9.80;99.90;;;;;;5148652;27;19934;-63
2022/04/08 12:45:04;;;;;;;;;;;9.90;99.90;;;;;;5128441;28;19923;-63
2022/04/08 12:47:30;;;;;;;;;;;9.80;99.90;;;;;;5146376;27;19927;-63
2022/04/08 12:49:56;;;;;;;;;;;9.70;99.90;;;;;;5144757;27;19904;-62
2022/04/08 12:52:21;;;;;;;;;;;9.90;99.90;;;;;;5143444;27;19950;-63
2022/04/08 12:54:49;;;;;;;;;;;10.10;99.90;;;;;;5145996;27;19951;-64
2022/04/08 12:57:15;;;;;;;;;;;10.30;99.90;;;;;;5136274;27;19903;-64
2022/04/08 12:59:40;;;;;;;;;;;10.50;99.90;;;;;;5137820;27;19950;-63
2022/04/08 13:02:07;;;;;;;;;;;10.60;99.90;;;;;;5151152;27;19911;-63
2022/04/08 13:04:32;;;;;;;;;;;10.70;99.90;;;;;;5131266;28;19984;-63
2022/04/08 13:07:00;;;;;;;;;;;10.60;99.90;;;;;;5152515;27;19912;-63
2022/04/08 13:09:25;;;;;;;;;;;10.70;99.90;;;;;;5134437;27;19919;-63
2022/04/08 13:11:51;;;;;;;;;;;10.90;99.90;;;;;;5132637;27;19938;-62
2022/04/08 13:14:18;;;;;;;;;;;11.10;99.90;;;;;;5146124;27;19949;-63
2022/04/08 13:16:43;;;;;;;;;;;11.20;99.90;;;;;;5125393;28;19907;-62
2022/04/08 13:19:09;;;;;;;;;;;11.10;99.90;;;;;;5144075;27;19935;-63
2022/04/08 13:21:34;;;;;;;;;;;11.40;99.90;;;;;;5132043;28;19954;-62
2022/04/08 13:24:00;;;;;;;;;;;11.70;99.80;;;;;;5138454;27;19911;-62
2022/04/08 13:26:27;;;;;;;;;;;11.90;99.00;;;;;;5129717;28;19923;-64
2022/04/08 13:28:53;;;;;;;;;;;12.40;98.70;;;;;;5134949;28;20290;-64
2022/04/08 13:31:19;;;;;;;;;;;12.70;97.90;;;;;;5139517;27;19911;-63
2022/04/08 13:33:44;;;;;;;;;;;12.60;96.20;;;;;;5132367;27;19920;-63
2022/04/08 13:36:13;;;;;;;;;;;12.60;96.00;;;;;;5130114;27;19932;-62
2022/04/08 13:38:38;;;;;;;;;;;12.70;96.00;;;;;;5135343;28;19965;-63
2022/04/08 13:41:04;;;;;;;;;;;12.50;95.50;;;;;;5119259;28;19916;-62
2022/04/08 13:43:30;;;;;;;;;;;12.40;96.00;;;;;;5146103;27;19916;-63
2022/04/08 13:45:56;;;;;;;;;;;12.50;96.00;;;;;;5143925;27;19950;-64
2022/04/08 13:48:21;;;;;;;;;;;12.50;96.10;;;;;;5158744;27;19942;-63
2022/04/08 13:50:47;;;;;;;;;;;12.50;96.10;;;;;;5161067;27;19918;-63
2022/04/08 13:53:13;;;;;;;;;;;12.40;96.10;;;;;;5155717;27;20195;-67
2022/04/08 13:55:38;;;;;;;;;;;12.30;96.50;;;;;;5156025;27;19923;-65
2022/04/08 13:58:04;;;;;;;;;;;12.10;97.50;;;;;;5153010;27;19914;-63
2022/04/08 14:00:30;;;;;;;;;;;12.40;97.40;;;;;;5148013;27;19949;-64
2022/04/08 14:02:56;;;;;;;;;;;12.10;92.80;;;;;;5151684;27;19915;-63
2022/04/08 14:05:21;;;;;;;;;;;12.10;91.80;;;;;;5144981;27;19968;-66
2022/04/08 14:07:47;;;;;;;;;;;11.90;91.10;;;;;;5143134;27;19968;-62
2022/04/08 14:10:13;;;;;;;;;;;11.90;89.20;;;;;;5153270;27;19919;-62
2022/04/08 14:12:38;;;;;;;;;;;11.90;88.80;;;;;;5145161;27;19904;-63
2022/04/08 14:15:04;;;;;;;;;;;11.90;88.00;;;;;;5149949;27;19904;-62
2022/04/08 14:17:30;;;;;;;;;;;11.80;88.50;;;;;;5142307;27;19931;-63
2022/04/08 14:19:56;;;;;;;;;;;11.90;89.90;;;;;;5143446;27;19915;-63
2022/04/08 14:22:22;;;;;;;;;;;12.10;90.20;;;;;;5153064;27;19908;-62